sensor_id;sensor_type;location;lat;lon;timestamp;temperature;humidity
25128;DHT22;13107;51.304;6.866;2023-05-15T00:02:01;10.80;99.90
25128;DHT22;13107;51.304;6.866;2023-05-15T00:06:03;10.70;99.90
25128;DHT22;13107;51.304;6.866;2023-05-15T00:10:06;10.70;99.90
25128;DHT22;13107;51.304;6.866;2023-05-15T00:14:08;10.70;99.90
25128;DHT22;13107;51.304;6.866;2023-05-15T00:18:09;10.60;99.90
25128;DHT22;13107;51.304;6.866;2023-05-15T00:22:11;10.50;99.90
25128;DHT22;13107;51.304;6.866;2023-05-15T00:26:13;10.50;99.90
25128;DHT22;13107;51.304;6.866;2023-05-15T00:30:16;10.40;99.90
25128;DHT22;13107;51.304;6.866;2023-05-15T00:34:18;10.40;99.90
25128;DHT22;13107;51.304;6.866;2023-05-15T00:38:19;10.40;99.90
25128;DHT22;13107;51.304;6.866;2023-05-15T00:42:22;10.30;99.90
25128;DHT22;13107;51.304;6.866;2023-05-15T00:46:26;10.30;99.90
25128;DHT22;13107;51.304;6.866;2023-05-15T00:50:28;10.30;99.90
25128;DHT22;13107;51.304;6.866;2023-05-15T00:54:30;10.20;99.90
25128;DHT22;13107;51.304;6.866;2023-05-15T00:58:33;10.20;99.90
25128;DHT22;13107;51.304;6.866;2023-05-15T01:02:37;10.20;99.90
25128;DHT22;13107;51.304;6.866;2023-05-15T01:06:39;10.20;99.90
25128;DHT22;13107;51.304;6.866;2023-05-15T01:10:42;10.10;99.90
25128;DHT22;13107;51.304;6.866;2023-05-15T01:14:44;10.20;99.90
25128;DHT22;13107;51.304;6.866;2023-05-15T01:18:46;10.20;99.90
25128;DHT22;13107;51.304;6.866;2023-05-15T01:23:30;10.30;99.90
25128;DHT22;13107;51.304;6.866;2023-05-15T01:27:47;10.40;99.90
25128;DHT22;13107;51.304;6.866;2023-05-15T01:31:54;10.50;99.90
25128;DHT22;13107;51.304;6.866;2023-05-15T01:35:58;10.60;99.90
25128;DHT22;13107;51.304;6.866;2023-05-15T01:40:02;10.60;99.90
25128;DHT22;13107;51.304;6.866;2023-05-15T01:44:24;10.70;99.90
25128;DHT22;13107;51.304;6.866;2023-05-15T01:48:27;10.80;99.90
25128;DHT22;13107;51.304;6.866;2023-05-15T01:52:34;10.90;99.90
25128;DHT22;13107;51.304;6.866;2023-05-15T01:56:38;10.90;99.90
25128;DHT22;13107;51.304;6.866;2023-05-15T02:00:41;10.90;99.90
25128;DHT22;13107;51.304;6.866;2023-05-15T02:04:43;11.00;99.90
25128;DHT22;13107;51.304;6.866;2023-05-15T02:08:46;11.10;99.90
25128;DHT22;13107;51.304;6.866;2023-05-15T02:12:48;11.10;99.90
25128;DHT22;13107;51.304;6.866;2023-05-15T02:16:50;11.30;99.90
25128;DHT22;13107;51.304;6.866;2023-05-15T02:20:53;11.40;99.90
25128;DHT22;13107;51.304;6.866;2023-05-15T02:24:54;11.60;99.90
25128;DHT22;13107;51.304;6.866;2023-05-15T02:33:58;12.00;99.90
25128;DHT22;13107;51.304;6.866;2023-05-15T02:38:08;12.20;99.90
25128;DHT22;13107;51.304;6.866;2023-05-15T02:42:12;12.20;99.90
25128;DHT22;13107;51.304;6.866;2023-05-15T02:46:15;12.30;99.90
25128;DHT22;13107;51.304;6.866;2023-05-15T02:50:17;12.40;99.90
25128;DHT22;13107;51.304;6.866;2023-05-15T02:54:19;12.40;99.90
25128;DHT22;13107;51.304;6.866;2023-05-15T02:58:21;12.40;99.90
25128;DHT22;13107;51.304;6.866;2023-05-15T03:02:23;12.40;99.90
25128;DHT22;13107;51.304;6.866;2023-05-15T03:06:25;12.50;99.90
25128;DHT22;13107;51.304;6.866;2023-05-15T03:10:27;12.50;99.90
25128;DHT22;13107;51.304;6.866;2023-05-15T03:14:28;12.60;99.90
25128;DHT22;13107;51.304;6.866;2023-05-15T03:18:30;12.50;99.90
25128;DHT22;13107;51.304;6.866;2023-05-15T03:22:32;12.40;99.90
25128;DHT22;13107;51.304;6.866;2023-05-15T03:26:33;12.50;99.90
25128;DHT22;13107;51.304;6.866;2023-05-15T03:30:35;12.50;99.90
25128;DHT22;13107;51.304;6.866;2023-05-15T03:34:37;12.40;99.90
25128;DHT22;13107;51.304;6.866;2023-05-15T03:38:41;12.30;99.90
25128;DHT22;13107;51.304;6.866;2023-05-15T03:42:44;12.40;99.90
25128;DHT22;13107;51.304;6.866;2023-05-15T03:46:46;12.30;99.90
25128;DHT22;13107;51.304;6.866;2023-05-15T03:50:48;12.30;99.90
25128;DHT22;13107;51.304;6.866;2023-05-15T03:54:49;12.30;99.90
25128;DHT22;13107;51.304;6.866;2023-05-15T03:58:52;12.30;99.90
25128;DHT22;13107;51.304;6.866;2023-05-15T04:02:53;12.30;99.90
25128;DHT22;13107;51.304;6.866;2023-05-15T04:06:56;12.30;99.90
25128;DHT22;13107;51.304;6.866;2023-05-15T04:10:57;12.20;99.90
25128;DHT22;13107;51.304;6.866;2023-05-15T04:15:20;12.20;99.90
25128;DHT22;13107;51.304;6.866;2023-05-15T04:19:22;12.10;99.90
25128;DHT22;13107;51.304;6.866;2023-05-15T04:23:24;12.20;99.90
25128;DHT22;13107;51.304;6.866;2023-05-15T04:27:26;12.20;99.90
25128;DHT22;13107;51.304;6.866;2023-05-15T04:31:28;12.10;99.90
25128;DHT22;13107;51.304;6.866;2023-05-15T04:35:30;12.10;99.90
25128;DHT22;13107;51.304;6.866;2023-05-15T04:39:32;12.10;99.90
25128;DHT22;13107;51.304;6.866;2023-05-15T04:43:33;12.20;99.90
25128;DHT22;13107;51.304;6.866;2023-05-15T04:47:35;12.10;99.90
25128;DHT22;13107;51.304;6.866;2023-05-15T04:51:37;11.90;99.90
25128;DHT22;13107;51.304;6.866;2023-05-15T04:55:39;12.00;99.90
25128;DHT22;13107;51.304;6.866;2023-05-15T04:59:41;12.10;99.90
25128;DHT22;13107;51.304;6.866;2023-05-15T05:03:42;12.10;99.90
25128;DHT22;13107;51.304;6.866;2023-05-15T05:07:44;12.00;99.90
25128;DHT22;13107;51.304;6.866;2023-05-15T05:11:47;11.90;99.90
25128;DHT22;13107;51.304;6.866;2023-05-15T05:15:48;12.00;99.90
25128;DHT22;13107;51.304;6.866;2023-05-15T05:19:50;12.00;99.90
25128;DHT22;13107;51.304;6.866;2023-05-15T05:23:52;12.10;99.90
25128;DHT22;13107;51.304;6.866;2023-05-15T05:27:53;12.10;99.90
25128;DHT22;13107;51.304;6.866;2023-05-15T05:31:55;12.10;99.90
25128;DHT22;13107;51.304;6.866;2023-05-15T05:35:58;12.20;99.90
25128;DHT22;13107;51.304;6.866;2023-05-15T05:39:59;12.20;99.90
25128;DHT22;13107;51.304;6.866;2023-05-15T05:44:01;12.20;99.90
25128;DHT22;13107;51.304;6.866;2023-05-15T05:48:03;12.30;99.90
25128;DHT22;13107;51.304;6.866;2023-05-15T05:52:06;12.20;99.90
25128;DHT22;13107;51.304;6.866;2023-05-15T05:56:08;12.20;99.90
25128;DHT22;13107;51.304;6.866;2023-05-15T06:00:11;12.30;99.90
25128;DHT22;13107;51.304;6.866;2023-05-15T06:04:13;12.20;99.90
25128;DHT22;13107;51.304;6.866;2023-05-15T06:08:19;12.20;99.90
25128;DHT22;13107;51.304;6.866;2023-05-15T06:12:21;12.20;99.90
25128;DHT22;13107;51.304;6.866;2023-05-15T06:16:23;12.20;99.90
25128;DHT22;13107;51.304;6.866;2023-05-15T06:20:25;12.30;99.90
25128;DHT22;13107;51.304;6.866;2023-05-15T06:24:28;12.30;99.90
25128;DHT22;13107;51.304;6.866;2023-05-15T06:28:29;12.40;99.90
25128;DHT22;13107;51.304;6.866;2023-05-15T06:32:31;12.60;99.90
25128;DHT22;13107;51.304;6.866;2023-05-15T06:36:36;12.60;99.90
25128;DHT22;13107;51.304;6.866;2023-05-15T06:40:37;12.70;99.90
25128;DHT22;13107;51.304;6.866;2023-05-15T06:44:39;12.70;99.90
25128;DHT22;13107;51.304;6.866;2023-05-15T06:48:41;12.90;99.90
25128;DHT22;13107;51.304;6.866;2023-05-15T06:52:42;13.00;99.90
25128;DHT22;13107;51.304;6.866;2023-05-15T06:56:44;12.90;99.90
25128;DHT22;13107;51.304;6.866;2023-05-15T07:00:46;12.90;99.90
25128;DHT22;13107;51.304;6.866;2023-05-15T07:04:48;12.90;99.90
25128;DHT22;13107;51.304;6.866;2023-05-15T07:08:49;12.80;99.90
25128;DHT22;13107;51.304;6.866;2023-05-15T07:12:51;12.80;99.90
25128;DHT22;13107;51.304;6.866;2023-05-15T07:16:53;12.70;99.90
25128;DHT22;13107;51.304;6.866;2023-05-15T07:20:55;12.70;99.90
25128;DHT22;13107;51.304;6.866;2023-05-15T07:24:56;12.80;99.90
25128;DHT22;13107;51.304;6.866;2023-05-15T07:28:58;12.80;99.90
25128;DHT22;13107;51.304;6.866;2023-05-15T07:33:00;13.10;99.90
25128;DHT22;13107;51.304;6.866;2023-05-15T07:37:02;13.30;99.90
25128;DHT22;13107;51.304;6.866;2023-05-15T07:41:04;13.60;99.90
25128;DHT22;13107;51.304;6.866;2023-05-15T07:45:06;13.70;99.90
25128;DHT22;13107;51.304;6.866;2023-05-15T07:49:08;13.80;99.90
25128;DHT22;13107;51.304;6.866;2023-05-15T07:53:10;13.80;99.90
25128;DHT22;13107;51.304;6.866;2023-05-15T07:57:11;14.10;99.90
25128;DHT22;13107;51.304;6.866;2023-05-15T08:01:13;14.10;99.90
25128;DHT22;13107;51.304;6.866;2023-05-15T08:05:15;14.30;99.90
25128;DHT22;13107;51.304;6.866;2023-05-15T08:09:17;14.50;99.90
25128;DHT22;13107;51.304;6.866;2023-05-15T08:13:18;14.80;99.90
25128;DHT22;13107;51.304;6.866;2023-05-15T08:17:20;14.90;99.90
25128;DHT22;13107;51.304;6.866;2023-05-15T08:21:22;14.90;99.90
25128;DHT22;13107;51.304;6.866;2023-05-15T08:25:24;15.00;99.90
25128;DHT22;13107;51.304;6.866;2023-05-15T08:29:26;15.20;99.90
25128;DHT22;13107;51.304;6.866;2023-05-15T08:33:28;15.70;99.90
25128;DHT22;13107;51.304;6.866;2023-05-15T08:37:29;16.40;99.90
25128;DHT22;13107;51.304;6.866;2023-05-15T08:41:32;17.00;99.90
25128;DHT22;13107;51.304;6.866;2023-05-15T08:45:42;17.90;99.90
25128;DHT22;13107;51.304;6.866;2023-05-15T08:54:05;18.50;99.90
25128;DHT22;13107;51.304;6.866;2023-05-15T08:58:08;18.60;99.90
25128;DHT22;13107;51.304;6.866;2023-05-15T09:02:09;18.80;99.90
25128;DHT22;13107;51.304;6.866;2023-05-15T09:06:12;19.40;99.90
25128;DHT22;13107;51.304;6.866;2023-05-15T09:10:14;19.20;99.90
25128;DHT22;13107;51.304;6.866;2023-05-15T09:14:16;19.40;99.90
25128;DHT22;13107;51.304;6.866;2023-05-15T09:18:19;19.00;99.90
25128;DHT22;13107;51.304;6.866;2023-05-15T09:22:21;18.60;99.90
25128;DHT22;13107;51.304;6.866;2023-05-15T09:26:24;18.90;99.90
25128;DHT22;13107;51.304;6.866;2023-05-15T09:30:27;19.50;99.90
25128;DHT22;13107;51.304;6.866;2023-05-15T09:34:33;19.70;99.90
25128;DHT22;13107;51.304;6.866;2023-05-15T09:38:42;20.30;99.90
25128;DHT22;13107;51.304;6.866;2023-05-15T09:42:51;20.90;99.90
25128;DHT22;13107;51.304;6.866;2023-05-15T09:46:53;21.30;99.90
25128;DHT22;13107;51.304;6.866;2023-05-15T09:50:55;21.30;99.90
25128;DHT22;13107;51.304;6.866;2023-05-15T09:54:57;21.50;99.90
25128;DHT22;13107;51.304;6.866;2023-05-15T09:58:59;21.10;99.90
25128;DHT22;13107;51.304;6.866;2023-05-15T10:03:02;21.30;99.90
25128;DHT22;13107;51.304;6.866;2023-05-15T10:07:07;21.10;99.90
25128;DHT22;13107;51.304;6.866;2023-05-15T10:11:09;21.40;99.90
25128;DHT22;13107;51.304;6.866;2023-05-15T10:15:12;21.00;99.90
25128;DHT22;13107;51.304;6.866;2023-05-15T10:19:16;21.50;99.90
25128;DHT22;13107;51.304;6.866;2023-05-15T10:23:20;21.10;99.90
25128;DHT22;13107;51.304;6.866;2023-05-15T10:27:22;21.20;99.90
25128;DHT22;13107;51.304;6.866;2023-05-15T10:31:25;21.40;99.90
25128;DHT22;13107;51.304;6.866;2023-05-15T10:35:27;21.60;99.90
25128;DHT22;13107;51.304;6.866;2023-05-15T10:39:30;21.60;99.90
25128;DHT22;13107;51.304;6.866;2023-05-15T10:43:32;21.60;99.60
25128;DHT22;13107;51.304;6.866;2023-05-15T10:47:37;21.30;99.90
25128;DHT22;13107;51.304;6.866;2023-05-15T10:51:41;21.50;99.90
25128;DHT22;13107;51.304;6.866;2023-05-15T10:55:42;21.50;99.90
25128;DHT22;13107;51.304;6.866;2023-05-15T10:59:46;21.40;99.90
25128;DHT22;13107;51.304;6.866;2023-05-15T11:03:48;21.50;99.90
25128;DHT22;13107;51.304;6.866;2023-05-15T11:12:16;22.10;99.90
25128;DHT22;13107;51.304;6.866;2023-05-15T11:25:09;21.20;99.60
25128;DHT22;13107;51.304;6.866;2023-05-15T11:29:18;20.80;99.90
25128;DHT22;13107;51.304;6.866;2023-05-15T11:33:20;20.70;99.90
25128;DHT22;13107;51.304;6.866;2023-05-15T11:37:23;20.90;99.90
25128;DHT22;13107;51.304;6.866;2023-05-15T11:41:30;21.20;98.90
25128;DHT22;13107;51.304;6.866;2023-05-15T11:45:35;20.90;98.50
25128;DHT22;13107;51.304;6.866;2023-05-15T11:49:37;21.10;99.90
25128;DHT22;13107;51.304;6.866;2023-05-15T11:53:39;21.70;99.50
25128;DHT22;13107;51.304;6.866;2023-05-15T11:57:41;21.50;96.40
25128;DHT22;13107;51.304;6.866;2023-05-15T12:01:44;21.90;96.40
25128;DHT22;13107;51.304;6.866;2023-05-15T12:05:49;21.80;94.50
25128;DHT22;13107;51.304;6.866;2023-05-15T12:09:59;22.70;96.50
25128;DHT22;13107;51.304;6.866;2023-05-15T12:14:02;23.10;91.20
25128;DHT22;13107;51.304;6.866;2023-05-15T12:18:05;23.90;88.70
25128;DHT22;13107;51.304;6.866;2023-05-15T12:22:08;24.60;87.00
25128;DHT22;13107;51.304;6.866;2023-05-15T12:26:10;24.80;81.30
25128;DHT22;13107;51.304;6.866;2023-05-15T12:30:12;24.70;83.80
25128;DHT22;13107;51.304;6.866;2023-05-15T12:34:15;24.60;78.30
25128;DHT22;13107;51.304;6.866;2023-05-15T12:38:17;24.60;78.60
25128;DHT22;13107;51.304;6.866;2023-05-15T12:42:19;24.40;75.80
25128;DHT22;13107;51.304;6.866;2023-05-15T12:46:29;24.40;72.80
25128;DHT22;13107;51.304;6.866;2023-05-15T12:50:33;24.60;72.70
25128;DHT22;13107;51.304;6.866;2023-05-15T12:54:39;24.40;72.90
25128;DHT22;13107;51.304;6.866;2023-05-15T12:58:44;25.00;72.70
25128;DHT22;13107;51.304;6.866;2023-05-15T13:02:49;24.70;70.10
25128;DHT22;13107;51.304;6.866;2023-05-15T13:06:51;23.50;70.30
25128;DHT22;13107;51.304;6.866;2023-05-15T13:10:58;22.30;74.90
25128;DHT22;13107;51.304;6.866;2023-05-15T13:15:00;21.70;81.90
25128;DHT22;13107;51.304;6.866;2023-05-15T13:19:02;22.20;88.00
25128;DHT22;13107;51.304;6.866;2023-05-15T13:23:04;22.40;86.80
25128;DHT22;13107;51.304;6.866;2023-05-15T13:27:06;21.70;86.00
25128;DHT22;13107;51.304;6.866;2023-05-15T13:31:07;22.10;87.60
25128;DHT22;13107;51.304;6.866;2023-05-15T13:35:10;22.50;86.20
25128;DHT22;13107;51.304;6.866;2023-05-15T13:39:12;22.30;87.80
25128;DHT22;13107;51.304;6.866;2023-05-15T13:43:13;21.50;88.00
25128;DHT22;13107;51.304;6.866;2023-05-15T13:47:15;20.70;92.30
25128;DHT22;13107;51.304;6.866;2023-05-15T13:51:17;20.60;93.30
25128;DHT22;13107;51.304;6.866;2023-05-15T13:55:19;20.50;94.20
25128;DHT22;13107;51.304;6.866;2023-05-15T13:59:23;20.80;95.90
25128;DHT22;13107;51.304;6.866;2023-05-15T14:03:25;21.10;95.40
25128;DHT22;13107;51.304;6.866;2023-05-15T14:07:28;21.50;96.70
25128;DHT22;13107;51.304;6.866;2023-05-15T14:11:29;21.80;95.30
25128;DHT22;13107;51.304;6.866;2023-05-15T14:15:31;21.70;94.20
25128;DHT22;13107;51.304;6.866;2023-05-15T14:19:33;21.60;94.50
25128;DHT22;13107;51.304;6.866;2023-05-15T14:23:35;21.90;96.10
25128;DHT22;13107;51.304;6.866;2023-05-15T14:27:37;21.60;94.70
25128;DHT22;13107;51.304;6.866;2023-05-15T14:31:40;21.40;94.30
25128;DHT22;13107;51.304;6.866;2023-05-15T14:35:42;21.80;95.40
25128;DHT22;13107;51.304;6.866;2023-05-15T14:39:44;21.90;94.20
25128;DHT22;13107;51.304;6.866;2023-05-15T14:43:46;21.50;94.50
25128;DHT22;13107;51.304;6.866;2023-05-15T14:47:48;20.90;94.30
25128;DHT22;13107;51.304;6.866;2023-05-15T14:51:50;20.20;96.40
25128;DHT22;13107;51.304;6.866;2023-05-15T14:55:53;20.00;98.20
25128;DHT22;13107;51.304;6.866;2023-05-15T14:59:55;19.80;98.90
25128;DHT22;13107;51.304;6.866;2023-05-15T15:03:56;19.70;99.30
25128;DHT22;13107;51.304;6.866;2023-05-15T15:08:01;19.60;99.90
25128;DHT22;13107;51.304;6.866;2023-05-15T15:12:04;19.30;98.50
25128;DHT22;13107;51.304;6.866;2023-05-15T15:16:06;18.90;99.90
25128;DHT22;13107;51.304;6.866;2023-05-15T15:20:09;18.80;99.90
25128;DHT22;13107;51.304;6.866;2023-05-15T15:24:12;18.90;99.90
25128;DHT22;13107;51.304;6.866;2023-05-15T15:28:14;19.10;99.90
25128;DHT22;13107;51.304;6.866;2023-05-15T15:32:16;19.00;99.90
25128;DHT22;13107;51.304;6.866;2023-05-15T15:36:17;18.70;99.90
25128;DHT22;13107;51.304;6.866;2023-05-15T15:40:19;18.50;99.90
25128;DHT22;13107;51.304;6.866;2023-05-15T15:44:23;18.60;99.90
25128;DHT22;13107;51.304;6.866;2023-05-15T15:48:25;18.00;99.90
25128;DHT22;13107;51.304;6.866;2023-05-15T15:52:26;17.80;99.90
25128;DHT22;13107;51.304;6.866;2023-05-15T15:56:28;17.70;99.90
25128;DHT22;13107;51.304;6.866;2023-05-15T16:00:30;17.40;99.90
25128;DHT22;13107;51.304;6.866;2023-05-15T16:04:32;17.30;99.90
25128;DHT22;13107;51.304;6.866;2023-05-15T16:08:34;17.20;99.90
25128;DHT22;13107;51.304;6.866;2023-05-15T16:12:38;17.20;99.90
25128;DHT22;13107;51.304;6.866;2023-05-15T16:16:41;17.10;99.90
25128;DHT22;13107;51.304;6.866;2023-05-15T16:20:42;17.00;99.90
25128;DHT22;13107;51.304;6.866;2023-05-15T16:24:44;17.00;99.90
25128;DHT22;13107;51.304;6.866;2023-05-15T16:28:48;17.00;99.90
25128;DHT22;13107;51.304;6.866;2023-05-15T16:32:51;16.90;99.90
25128;DHT22;13107;51.304;6.866;2023-05-15T16:36:53;17.00;99.90
25128;DHT22;13107;51.304;6.866;2023-05-15T16:40:54;17.10;99.90
25128;DHT22;13107;51.304;6.866;2023-05-15T16:44:56;17.20;99.90
25128;DHT22;13107;51.304;6.866;2023-05-15T16:48:58;17.00;99.90
25128;DHT22;13107;51.304;6.866;2023-05-15T16:53:00;16.90;99.90
25128;DHT22;13107;51.304;6.866;2023-05-15T16:57:02;16.80;99.90
25128;DHT22;13107;51.304;6.866;2023-05-15T17:01:03;16.70;99.90
25128;DHT22;13107;51.304;6.866;2023-05-15T17:05:06;16.80;99.90
25128;DHT22;13107;51.304;6.866;2023-05-15T17:09:11;16.60;99.90
25128;DHT22;13107;51.304;6.866;2023-05-15T17:13:12;16.50;99.90
25128;DHT22;13107;51.304;6.866;2023-05-15T17:17:15;16.50;99.90
25128;DHT22;13107;51.304;6.866;2023-05-15T17:21:16;16.30;99.90
25128;DHT22;13107;51.304;6.866;2023-05-15T17:25:18;16.20;99.90
25128;DHT22;13107;51.304;6.866;2023-05-15T17:29:20;16.10;99.90
25128;DHT22;13107;51.304;6.866;2023-05-15T17:33:22;16.10;99.90
25128;DHT22;13107;51.304;6.866;2023-05-15T17:37:23;16.00;99.90
25128;DHT22;13107;51.304;6.866;2023-05-15T17:41:25;16.00;99.90
25128;DHT22;13107;51.304;6.866;2023-05-15T17:45:27;15.80;99.90
25128;DHT22;13107;51.304;6.866;2023-05-15T17:49:29;15.80;99.90
25128;DHT22;13107;51.304;6.866;2023-05-15T17:53:30;15.80;99.90
25128;DHT22;13107;51.304;6.866;2023-05-15T17:57:32;15.70;99.90
25128;DHT22;13107;51.304;6.866;2023-05-15T18:01:34;15.60;99.90
25128;DHT22;13107;51.304;6.866;2023-05-15T18:05:36;15.50;99.90
25128;DHT22;13107;51.304;6.866;2023-05-15T18:09:37;15.50;99.90
25128;DHT22;13107;51.304;6.866;2023-05-15T18:13:39;15.30;99.90
25128;DHT22;13107;51.304;6.866;2023-05-15T18:17:41;15.00;99.90
25128;DHT22;13107;51.304;6.866;2023-05-15T18:21:43;14.60;99.90
25128;DHT22;13107;51.304;6.866;2023-05-15T18:25:45;14.10;99.90
25128;DHT22;13107;51.304;6.866;2023-05-15T18:29:47;13.90;99.90
25128;DHT22;13107;51.304;6.866;2023-05-15T18:33:49;13.70;99.90
25128;DHT22;13107;51.304;6.866;2023-05-15T18:37:51;13.60;99.90
25128;DHT22;13107;51.304;6.866;2023-05-15T18:41:53;13.50;99.90
25128;DHT22;13107;51.304;6.866;2023-05-15T18:45:55;13.50;99.90
25128;DHT22;13107;51.304;6.866;2023-05-15T18:49:57;13.50;99.90
25128;DHT22;13107;51.304;6.866;2023-05-15T18:53:59;13.40;99.90
25128;DHT22;13107;51.304;6.866;2023-05-15T18:58:00;13.40;99.90
25128;DHT22;13107;51.304;6.866;2023-05-15T19:02:02;13.40;99.90
25128;DHT22;13107;51.304;6.866;2023-05-15T19:06:04;13.20;99.90
25128;DHT22;13107;51.304;6.866;2023-05-15T19:10:07;13.20;99.90
25128;DHT22;13107;51.304;6.866;2023-05-15T19:14:09;13.10;99.90
25128;DHT22;13107;51.304;6.866;2023-05-15T19:18:15;13.10;99.90
25128;DHT22;13107;51.304;6.866;2023-05-15T19:22:17;13.00;99.90
25128;DHT22;13107;51.304;6.866;2023-05-15T19:26:19;12.90;99.90
25128;DHT22;13107;51.304;6.866;2023-05-15T19:30:22;12.80;99.90
25128;DHT22;13107;51.304;6.866;2023-05-15T19:34:24;12.80;99.90
25128;DHT22;13107;51.304;6.866;2023-05-15T19:38:25;12.80;99.90
25128;DHT22;13107;51.304;6.866;2023-05-15T19:42:27;12.70;99.90
25128;DHT22;13107;51.304;6.866;2023-05-15T19:46:29;12.70;99.90
25128;DHT22;13107;51.304;6.866;2023-05-15T19:50:31;12.60;99.90
25128;DHT22;13107;51.304;6.866;2023-05-15T19:54:33;12.50;99.90
25128;DHT22;13107;51.304;6.866;2023-05-15T19:58:35;12.50;99.90
25128;DHT22;13107;51.304;6.866;2023-05-15T20:02:37;12.50;99.90
25128;DHT22;13107;51.304;6.866;2023-05-15T20:06:41;12.50;99.90
25128;DHT22;13107;51.304;6.866;2023-05-15T20:10:43;12.50;99.90
25128;DHT22;13107;51.304;6.866;2023-05-15T20:14:50;12.50;99.90
25128;DHT22;13107;51.304;6.866;2023-05-15T20:18:52;12.30;99.90
25128;DHT22;13107;51.304;6.866;2023-05-15T20:22:56;12.30;99.90
25128;DHT22;13107;51.304;6.866;2023-05-15T20:26:57;12.40;99.90
25128;DHT22;13107;51.304;6.866;2023-05-15T20:30:59;12.40;99.90
25128;DHT22;13107;51.304;6.866;2023-05-15T20:35:02;12.30;99.90
25128;DHT22;13107;51.304;6.866;2023-05-15T20:39:04;12.30;99.90
25128;DHT22;13107;51.304;6.866;2023-05-15T20:43:08;12.30;99.90
25128;DHT22;13107;51.304;6.866;2023-05-15T20:47:09;12.30;99.90
25128;DHT22;13107;51.304;6.866;2023-05-15T20:51:11;12.30;99.90
25128;DHT22;13107;51.304;6.866;2023-05-15T20:55:14;12.20;99.90
25128;DHT22;13107;51.304;6.866;2023-05-15T20:59:16;12.20;99.90
25128;DHT22;13107;51.304;6.866;2023-05-15T21:03:18;12.20;99.90
25128;DHT22;13107;51.304;6.866;2023-05-15T21:07:20;12.20;99.90
25128;DHT22;13107;51.304;6.866;2023-05-15T21:11:22;12.30;99.90
25128;DHT22;13107;51.304;6.866;2023-05-15T21:15:24;12.20;99.90
25128;DHT22;13107;51.304;6.866;2023-05-15T21:19:26;12.20;99.90
25128;DHT22;13107;51.304;6.866;2023-05-15T21:23:27;12.20;99.90
25128;DHT22;13107;51.304;6.866;2023-05-15T21:27:29;12.10;99.90
25128;DHT22;13107;51.304;6.866;2023-05-15T21:31:31;12.20;99.90
25128;DHT22;13107;51.304;6.866;2023-05-15T21:35:33;12.10;99.90
25128;DHT22;13107;51.304;6.866;2023-05-15T21:39:35;12.10;99.90
25128;DHT22;13107;51.304;6.866;2023-05-15T21:43:36;12.10;99.90
25128;DHT22;13107;51.304;6.866;2023-05-15T21:47:38;12.10;99.90
25128;DHT22;13107;51.304;6.866;2023-05-15T21:51:40;12.10;99.90
25128;DHT22;13107;51.304;6.866;2023-05-15T21:55:42;12.00;99.90
25128;DHT22;13107;51.304;6.866;2023-05-15T21:59:45;12.00;99.90
25128;DHT22;13107;51.304;6.866;2023-05-15T22:03:46;12.00;99.90
25128;DHT22;13107;51.304;6.866;2023-05-15T22:07:48;12.00;99.90
25128;DHT22;13107;51.304;6.866;2023-05-15T22:11:50;12.00;99.90
25128;DHT22;13107;51.304;6.866;2023-05-15T22:15:52;12.00;99.90
25128;DHT22;13107;51.304;6.866;2023-05-15T22:19:54;12.00;99.90
25128;DHT22;13107;51.304;6.866;2023-05-15T22:24:03;11.90;99.90
25128;DHT22;13107;51.304;6.866;2023-05-15T22:28:05;11.90;99.90
25128;DHT22;13107;51.304;6.866;2023-05-15T22:32:06;11.90;99.90
25128;DHT22;13107;51.304;6.866;2023-05-15T22:36:08;11.90;99.90
25128;DHT22;13107;51.304;6.866;2023-05-15T22:40:11;11.90;99.90
25128;DHT22;13107;51.304;6.866;2023-05-15T22:44:13;11.80;99.90
25128;DHT22;13107;51.304;6.866;2023-05-15T22:48:14;11.70;99.90
25128;DHT22;13107;51.304;6.866;2023-05-15T22:52:17;11.70;99.90
25128;DHT22;13107;51.304;6.866;2023-05-15T22:56:19;11.50;99.90
25128;DHT22;13107;51.304;6.866;2023-05-15T23:00:20;11.40;99.90
25128;DHT22;13107;51.304;6.866;2023-05-15T23:04:22;11.30;99.90
25128;DHT22;13107;51.304;6.866;2023-05-15T23:08:25;11.30;99.90
25128;DHT22;13107;51.304;6.866;2023-05-15T23:12:27;11.20;99.90
25128;DHT22;13107;51.304;6.866;2023-05-15T23:16:29;11.20;99.90
25128;DHT22;13107;51.304;6.866;2023-05-15T23:20:31;11.20;99.90
25128;DHT22;13107;51.304;6.866;2023-05-15T23:24:33;11.10;99.90
25128;DHT22;13107;51.304;6.866;2023-05-15T23:28:35;11.20;99.90
25128;DHT22;13107;51.304;6.866;2023-05-15T23:32:37;11.10;99.90
25128;DHT22;13107;51.304;6.866;2023-05-15T23:36:38;11.00;99.90
25128;DHT22;13107;51.304;6.866;2023-05-15T23:40:40;11.00;99.90
25128;DHT22;13107;51.304;6.866;2023-05-15T23:44:42;11.10;99.90
25128;DHT22;13107;51.304;6.866;2023-05-15T23:48:44;10.90;99.90
25128;DHT22;13107;51.304;6.866;2023-05-15T23:52:46;11.00;99.90
25128;DHT22;13107;51.304;6.866;2023-05-15T23:56:48;10.90;99.90
